sensor_id;sensor_type;location;lat;lon;timestamp;pressure;altitude;pressure_sealevel;temperature;humidity
48563;BME280;34981;49.104;11.396;2022-09-12T00:00:34;95889.13;;;11.78;100.00
48563;BME280;34981;49.104;11.396;2022-09-12T00:03:02;95887.25;;;11.73;100.00
48563;BME280;34981;49.104;11.396;2022-09-12T00:05:29;95889.41;;;11.71;100.00
48563;BME280;34981;49.104;11.396;2022-09-12T00:07:56;95891.59;;;11.64;100.00
48563;BME280;34981;49.104;11.396;2022-09-12T00:10:23;95886.50;;;11.57;100.00
48563;BME280;34981;49.104;11.396;2022-09-12T00:12:51;95888.13;;;11.58;100.00
48563;BME280;34981;49.104;11.396;2022-09-12T00:15:18;95884.38;;;11.59;100.00
48563;BME280;34981;49.104;11.396;2022-09-12T00:17:45;95885.44;;;11.58;100.00
48563;BME280;34981;49.104;11.396;2022-09-12T00:20:12;95884.09;;;11.56;100.00
48563;BME280;34981;49.104;11.396;2022-09-12T00:22:39;95879.28;;;11.53;100.00
48563;BME280;34981;49.104;11.396;2022-09-12T00:25:06;95878.22;;;11.49;100.00
48563;BME280;34981;49.104;11.396;2022-09-12T00:27:33;95875.28;;;11.45;100.00
48563;BME280;34981;49.104;11.396;2022-09-12T00:30:00;95880.41;;;11.42;100.00
48563;BME280;34981;49.104;11.396;2022-09-12T00:32:27;95877.47;;;11.38;100.00
48563;BME280;34981;49.104;11.396;2022-09-12T00:34:54;95875.84;;;11.37;100.00
48563;BME280;34981;49.104;11.396;2022-09-12T00:37:21;95870.75;;;11.36;100.00
48563;BME280;34981;49.104;11.396;2022-09-12T00:39:48;95876.41;;;11.34;100.00
48563;BME280;34981;49.104;11.396;2022-09-12T00:42:15;95873.97;;;11.32;100.00
48563;BME280;34981;49.104;11.396;2022-09-12T00:44:44;95868.88;;;11.31;100.00
48563;BME280;34981;49.104;11.396;2022-09-12T00:47:13;95863.50;;;11.26;100.00
48563;BME280;34981;49.104;11.396;2022-09-12T00:50:26;95866.50;;;11.24;100.00
48563;BME280;34981;49.104;11.396;2022-09-12T00:57:28;95866.75;;;11.23;100.00
48563;BME280;34981;49.104;11.396;2022-09-12T00:59:57;95868.38;;;11.19;100.00
48563;BME280;34981;49.104;11.396;2022-09-12T01:02:25;95869.19;;;11.19;100.00
48563;BME280;34981;49.104;11.396;2022-09-12T01:04:52;95864.06;;;11.18;100.00
48563;BME280;34981;49.104;11.396;2022-09-12T01:07:19;95869.22;;;11.14;100.00
48563;BME280;34981;49.104;11.396;2022-09-12T01:09:47;95868.41;;;11.14;100.00
48563;BME280;34981;49.104;11.396;2022-09-12T01:12:14;95864.09;;;11.13;100.00
48563;BME280;34981;49.104;11.396;2022-09-12T01:14:42;95865.19;;;11.12;100.00
48563;BME280;34981;49.104;11.396;2022-09-12T01:17:13;95851.22;;;11.05;100.00
48563;BME280;34981;49.104;11.396;2022-09-12T01:20:02;95860.09;;;11.05;100.00
48563;BME280;34981;49.104;11.396;2022-09-12T01:25:30;95850.16;;;11.01;100.00
48563;BME280;34981;49.104;11.396;2022-09-12T01:28:09;95843.97;;;11.00;100.00
48563;BME280;34981;49.104;11.396;2022-09-12T01:35:42;95843.97;;;11.00;100.00
48563;BME280;34981;49.104;11.396;2022-09-12T01:38:24;95835.13;;;10.95;100.00
48563;BME280;34981;49.104;11.396;2022-09-12T01:40:58;95841.88;;;10.87;100.00
48563;BME280;34981;49.104;11.396;2022-09-12T01:45:57;95840.03;;;10.77;100.00
48563;BME280;34981;49.104;11.396;2022-09-12T01:48:38;95837.59;;;10.76;100.00
48563;BME280;34981;49.104;11.396;2022-09-12T01:54:25;95833.59;;;10.63;100.00
48563;BME280;34981;49.104;11.396;2022-09-12T01:56:52;95835.75;;;10.66;100.00
48563;BME280;34981;49.104;11.396;2022-09-12T01:59:24;95828.22;;;10.63;100.00
48563;BME280;34981;49.104;11.396;2022-09-12T02:01:57;95830.66;;;10.65;100.00
48563;BME280;34981;49.104;11.396;2022-09-12T02:05:11;95825.28;;;10.65;100.00
48563;BME280;34981;49.104;11.396;2022-09-12T02:07:19;95835.25;;;10.59;100.00
48563;BME280;34981;49.104;11.396;2022-09-12T02:09:49;95826.63;;;10.62;100.00
48563;BME280;34981;49.104;11.396;2022-09-12T02:12:19;95818.28;;;10.64;100.00
48563;BME280;34981;49.104;11.396;2022-09-12T02:14:52;95823.09;;;10.67;100.00
48563;BME280;34981;49.104;11.396;2022-09-12T02:17:22;95823.13;;;10.62;100.00
48563;BME280;34981;49.104;11.396;2022-09-12T02:19:54;95815.88;;;10.62;100.00
48563;BME280;34981;49.104;11.396;2022-09-12T02:22:23;95822.03;;;10.63;100.00
48563;BME280;34981;49.104;11.396;2022-09-12T02:24:53;95820.72;;;10.65;100.00
48563;BME280;34981;49.104;11.396;2022-09-12T02:27:29;95812.06;;;10.68;100.00
48563;BME280;34981;49.104;11.396;2022-09-12T02:29:59;95821.75;;;10.69;100.00
48563;BME280;34981;49.104;11.396;2022-09-12T02:38:08;95807.22;;;10.75;100.00
48563;BME280;34981;49.104;11.396;2022-09-12T02:40:36;95812.59;;;10.75;100.00
48563;BME280;34981;49.104;11.396;2022-09-12T02:43:04;95807.78;;;10.72;100.00
48563;BME280;34981;49.104;11.396;2022-09-12T02:45:32;95811.00;;;10.69;100.00
48563;BME280;34981;49.104;11.396;2022-09-12T02:48:14;95801.88;;;10.65;100.00
48563;BME280;34981;49.104;11.396;2022-09-12T02:50:44;95809.94;;;10.65;100.00
48563;BME280;34981;49.104;11.396;2022-09-12T02:53:11;95804.56;;;10.65;100.00
48563;BME280;34981;49.104;11.396;2022-09-12T03:43:03;95791.22;;;10.30;100.00
48563;BME280;34981;49.104;11.396;2022-09-12T03:45:30;95796.88;;;10.28;100.00
48563;BME280;34981;49.104;11.396;2022-09-12T03:47:58;95798.75;;;10.28;100.00
48563;BME280;34981;49.104;11.396;2022-09-12T03:50:25;95791.75;;;10.27;100.00
48563;BME280;34981;49.104;11.396;2022-09-12T03:52:52;95801.16;;;10.19;100.00
48563;BME280;34981;49.104;11.396;2022-09-12T03:55:19;95802.22;;;10.13;100.00
48563;BME280;34981;49.104;11.396;2022-09-12T03:57:46;95809.22;;;10.14;100.00
48563;BME280;34981;49.104;11.396;2022-09-12T04:00:13;95795.47;;;10.15;100.00
48563;BME280;34981;49.104;11.396;2022-09-12T04:02:45;95796.59;;;10.20;100.00
48563;BME280;34981;49.104;11.396;2022-09-12T04:05:12;95791.50;;;10.18;100.00
48563;BME280;34981;49.104;11.396;2022-09-12T04:07:39;95793.38;;;10.18;100.00
48563;BME280;34981;49.104;11.396;2022-09-12T04:10:06;95799.28;;;10.14;100.00
48563;BME280;34981;49.104;11.396;2022-09-12T04:12:35;95800.31;;;10.08;100.00
48563;BME280;34981;49.104;11.396;2022-09-12T04:15:02;95793.91;;;10.04;100.00
48563;BME280;34981;49.104;11.396;2022-09-12T04:17:29;95796.84;;;10.03;100.00
48563;BME280;34981;49.104;11.396;2022-09-12T04:19:56;95794.16;;;10.03;100.00
48563;BME280;34981;49.104;11.396;2022-09-12T04:22:23;95803.28;;;10.02;100.00
48563;BME280;34981;49.104;11.396;2022-09-12T04:24:50;95802.78;;;10.00;100.00
48563;BME280;34981;49.104;11.396;2022-09-12T04:27:17;95803.03;;;9.98;100.00
48563;BME280;34981;49.104;11.396;2022-09-12T04:29:44;95799.28;;;9.99;100.00
48563;BME280;34981;49.104;11.396;2022-09-12T04:32:11;95800.34;;;9.98;100.00
48563;BME280;34981;49.104;11.396;2022-09-12T04:34:39;95805.72;;;9.93;100.00
48563;BME280;34981;49.104;11.396;2022-09-12T04:37:06;95808.66;;;9.87;100.00
48563;BME280;34981;49.104;11.396;2022-09-12T04:39:33;95809.47;;;9.87;100.00
48563;BME280;34981;49.104;11.396;2022-09-12T04:42:00;95801.94;;;9.89;100.00
48563;BME280;34981;49.104;11.396;2022-09-12T04:44:27;95799.81;;;9.91;100.00
48563;BME280;34981;49.104;11.396;2022-09-12T04:46:54;95799.81;;;9.91;100.00
48563;BME280;34981;49.104;11.396;2022-09-12T04:49:21;95798.47;;;9.84;100.00
48563;BME280;34981;49.104;11.396;2022-09-12T04:51:48;95808.66;;;9.82;100.00
48563;BME280;34981;49.104;11.396;2022-09-12T04:54:18;95812.16;;;9.82;100.00
48563;BME280;34981;49.104;11.396;2022-09-12T04:56:46;95804.66;;;9.84;100.00
48563;BME280;34981;49.104;11.396;2022-09-12T04:59:15;95811.63;;;9.85;100.00
48563;BME280;34981;49.104;11.396;2022-09-12T05:01:42;95803.03;;;9.83;100.00
48563;BME280;34981;49.104;11.396;2022-09-12T05:04:10;95808.66;;;9.82;100.00
48563;BME280;34981;49.104;11.396;2022-09-12T05:06:38;95800.88;;;9.80;100.00
48563;BME280;34981;49.104;11.396;2022-09-12T05:09:06;95802.75;;;9.80;100.00
48563;BME280;34981;49.104;11.396;2022-09-12T05:11:35;95808.94;;;9.80;100.00
48563;BME280;34981;49.104;11.396;2022-09-12T05:14:23;95813.78;;;9.83;100.00
48563;BME280;34981;49.104;11.396;2022-09-12T05:16:50;95809.75;;;9.86;100.00
48563;BME280;34981;49.104;11.396;2022-09-12T05:19:17;95812.16;;;9.87;100.00
48563;BME280;34981;49.104;11.396;2022-09-12T05:21:44;95815.38;;;9.89;100.00
48563;BME280;34981;49.104;11.396;2022-09-12T05:24:12;95812.16;;;9.92;100.00
48563;BME280;34981;49.104;11.396;2022-09-12T05:26:39;95809.75;;;9.96;100.00
48563;BME280;34981;49.104;11.396;2022-09-12T05:29:06;95813.22;;;10.01;100.00
48563;BME280;34981;49.104;11.396;2022-09-12T05:31:33;95817.00;;;10.05;100.00
48563;BME280;34981;49.104;11.396;2022-09-12T05:34:00;95820.22;;;10.07;100.00
48563;BME280;34981;49.104;11.396;2022-09-12T05:36:31;95823.97;;;10.16;100.00
48563;BME280;34981;49.104;11.396;2022-09-12T05:38:59;95830.97;;;10.28;100.00
48563;BME280;34981;49.104;11.396;2022-09-12T05:41:27;95829.91;;;10.34;100.00
48563;BME280;34981;49.104;11.396;2022-09-12T05:43:58;95830.44;;;10.36;100.00
48563;BME280;34981;49.104;11.396;2022-09-12T05:46:26;95831.47;;;10.45;100.00
48563;BME280;34981;49.104;11.396;2022-09-12T05:48:54;95824.50;;;10.59;100.00
48563;BME280;34981;49.104;11.396;2022-09-12T05:51:25;95833.59;;;10.73;100.00
48563;BME280;34981;49.104;11.396;2022-09-12T05:53:55;95835.13;;;10.89;100.00
48563;BME280;34981;49.104;11.396;2022-09-12T05:56:26;95833.25;;;10.95;100.00
48563;BME280;34981;49.104;11.396;2022-09-12T05:58:56;95839.38;;;11.06;100.00
48563;BME280;34981;49.104;11.396;2022-09-12T06:01:24;95840.13;;;11.21;100.00
48563;BME280;34981;49.104;11.396;2022-09-12T06:03:53;95846.47;;;11.41;100.00
48563;BME280;34981;49.104;11.396;2022-09-12T06:06:21;95846.41;;;11.61;100.00
48563;BME280;34981;49.104;11.396;2022-09-12T06:08:50;95846.81;;;11.83;100.00
48563;BME280;34981;49.104;11.396;2022-09-12T06:11:19;95846.34;;;12.10;100.00
48563;BME280;34981;49.104;11.396;2022-09-12T06:13:46;95857.34;;;12.47;100.00
48563;BME280;34981;49.104;11.396;2022-09-12T06:16:15;95854.84;;;12.56;100.00
48563;BME280;34981;49.104;11.396;2022-09-12T06:18:46;95852.78;;;12.72;100.00
48563;BME280;34981;49.104;11.396;2022-09-12T06:21:13;95854.25;;;12.88;100.00
48563;BME280;34981;49.104;11.396;2022-09-12T06:23:41;95855.16;;;13.02;100.00
48563;BME280;34981;49.104;11.396;2022-09-12T06:26:08;95855.84;;;13.18;100.00
48563;BME280;34981;49.104;11.396;2022-09-12T06:28:37;95860.28;;;13.51;100.00
48563;BME280;34981;49.104;11.396;2022-09-12T06:31:09;95858.75;;;13.64;100.00
48563;BME280;34981;49.104;11.396;2022-09-12T06:33:38;95862.91;;;13.75;100.00
48563;BME280;34981;49.104;11.396;2022-09-12T06:36:07;95859.00;;;13.86;100.00
48563;BME280;34981;49.104;11.396;2022-09-12T06:38:38;95859.25;;;14.03;100.00
48563;BME280;34981;49.104;11.396;2022-09-12T06:41:07;95853.25;;;14.25;100.00
48563;BME280;34981;49.104;11.396;2022-09-12T06:43:34;95857.97;;;14.33;100.00
48563;BME280;34981;49.104;11.396;2022-09-12T06:46:01;95852.28;;;14.35;100.00
48563;BME280;34981;49.104;11.396;2022-09-12T06:48:29;95850.53;;;14.44;100.00
48563;BME280;34981;49.104;11.396;2022-09-12T06:51:06;95847.16;;;14.52;100.00
48563;BME280;34981;49.104;11.396;2022-09-12T06:53:34;95856.66;;;14.96;100.00
48563;BME280;34981;49.104;11.396;2022-09-12T06:56:05;95849.34;;;15.10;100.00
48563;BME280;34981;49.104;11.396;2022-09-12T06:58:33;95852.16;;;15.05;100.00
48563;BME280;34981;49.104;11.396;2022-09-12T07:01:11;95849.66;;;15.08;100.00
48563;BME280;34981;49.104;11.396;2022-09-12T07:03:38;95847.22;;;15.20;100.00
48563;BME280;34981;49.104;11.396;2022-09-12T07:08:33;95844.03;;;15.18;100.00
48563;BME280;34981;49.104;11.396;2022-09-12T07:11:07;95844.50;;;15.34;100.00
48563;BME280;34981;49.104;11.396;2022-09-12T07:13:34;95852.66;;;15.48;100.00
48563;BME280;34981;49.104;11.396;2022-09-12T07:16:02;95846.41;;;15.75;100.00
48563;BME280;34981;49.104;11.396;2022-09-12T07:18:30;95850.88;;;15.93;100.00
48563;BME280;34981;49.104;11.396;2022-09-12T07:21:00;95845.31;;;16.12;100.00
48563;BME280;34981;49.104;11.396;2022-09-12T07:23:28;95853.50;;;16.20;100.00
48563;BME280;34981;49.104;11.396;2022-09-12T07:25:56;95846.34;;;16.24;100.00
48563;BME280;34981;49.104;11.396;2022-09-12T07:28:24;95845.47;;;16.38;100.00
48563;BME280;34981;49.104;11.396;2022-09-12T07:30:52;95856.97;;;16.57;100.00
48563;BME280;34981;49.104;11.396;2022-09-12T07:33:20;95852.00;;;16.59;100.00
48563;BME280;34981;49.104;11.396;2022-09-12T07:35:48;95854.06;;;16.76;100.00
48563;BME280;34981;49.104;11.396;2022-09-12T07:38:16;95853.97;;;16.89;100.00
48563;BME280;34981;49.104;11.396;2022-09-12T07:40:43;95850.94;;;16.91;100.00
48563;BME280;34981;49.104;11.396;2022-09-12T07:43:10;95847.22;;;17.09;100.00
48563;BME280;34981;49.104;11.396;2022-09-12T07:45:37;95846.56;;;17.12;100.00
48563;BME280;34981;49.104;11.396;2022-09-12T07:48:08;95844.91;;;17.42;100.00
48563;BME280;34981;49.104;11.396;2022-09-12T07:50:35;95836.09;;;17.28;100.00
48563;BME280;34981;49.104;11.396;2022-09-12T07:53:03;95834.19;;;17.37;100.00
48563;BME280;34981;49.104;11.396;2022-09-12T07:55:30;95835.31;;;17.36;100.00
48563;BME280;34981;49.104;11.396;2022-09-12T07:57:57;95835.81;;;17.46;100.00
48563;BME280;34981;49.104;11.396;2022-09-12T08:00:25;95839.25;;;17.69;100.00
48563;BME280;34981;49.104;11.396;2022-09-12T08:02:53;95830.06;;;17.48;100.00
48563;BME280;34981;49.104;11.396;2022-09-12T08:05:20;95831.03;;;17.61;100.00
48563;BME280;34981;49.104;11.396;2022-09-12T08:07:48;95832.69;;;17.62;100.00
48563;BME280;34981;49.104;11.396;2022-09-12T08:10:15;95831.75;;;17.66;100.00
48563;BME280;34981;49.104;11.396;2022-09-12T08:12:42;95835.13;;;17.80;100.00
48563;BME280;34981;49.104;11.396;2022-09-12T08:15:09;95838.16;;;17.79;100.00
48563;BME280;34981;49.104;11.396;2022-09-12T08:17:36;95838.34;;;17.82;100.00
48563;BME280;34981;49.104;11.396;2022-09-12T08:20:03;95840.25;;;17.99;100.00
48563;BME280;34981;49.104;11.396;2022-09-12T08:22:31;95839.13;;;18.09;100.00
48563;BME280;34981;49.104;11.396;2022-09-12T08:24:58;95831.47;;;18.11;100.00
48563;BME280;34981;49.104;11.396;2022-09-12T08:27:25;95823.59;;;17.92;100.00
48563;BME280;34981;49.104;11.396;2022-09-12T08:29:52;95837.06;;;18.23;100.00
48563;BME280;34981;49.104;11.396;2022-09-12T08:32:21;95830.63;;;18.36;100.00
48563;BME280;34981;49.104;11.396;2022-09-12T08:34:48;95828.22;;;18.52;100.00
48563;BME280;34981;49.104;11.396;2022-09-12T08:37:15;95829.84;;;18.70;100.00
48563;BME280;34981;49.104;11.396;2022-09-12T08:39:42;95823.09;;;18.50;100.00
48563;BME280;34981;49.104;11.396;2022-09-12T08:42:09;95814.78;;;18.47;100.00
48563;BME280;34981;49.104;11.396;2022-09-12T08:44:47;95816.56;;;18.60;100.00
48563;BME280;34981;49.104;11.396;2022-09-12T08:52:28;95809.66;;;18.45;100.00
48563;BME280;34981;49.104;11.396;2022-09-12T08:54:56;95808.97;;;18.74;100.00
48563;BME280;34981;49.104;11.396;2022-09-12T08:57:24;95812.06;;;18.55;100.00
48563;BME280;34981;49.104;11.396;2022-09-12T08:59:51;95814.44;;;18.48;100.00
48563;BME280;34981;49.104;11.396;2022-09-12T09:04:49;95808.88;;;19.00;100.00
48563;BME280;34981;49.104;11.396;2022-09-12T09:07:27;95806.25;;;19.21;100.00
48563;BME280;34981;49.104;11.396;2022-09-12T09:12:52;95811.91;;;19.74;100.00
48563;BME280;34981;49.104;11.396;2022-09-12T09:17:59;95802.13;;;19.73;100.00
48563;BME280;34981;49.104;11.396;2022-09-12T09:20:33;95806.13;;;19.76;100.00
48563;BME280;34981;49.104;11.396;2022-09-12T09:23:13;95810.44;;;19.98;100.00
48563;BME280;34981;49.104;11.396;2022-09-12T09:26:03;95804.88;;;19.94;100.00
48563;BME280;34981;49.104;11.396;2022-09-12T09:31:02;95795.09;;;19.93;100.00
48563;BME280;34981;49.104;11.396;2022-09-12T09:33:32;95804.94;;;20.06;100.00
48563;BME280;34981;49.104;11.396;2022-09-12T09:38:49;95791.50;;;20.55;100.00
48563;BME280;34981;49.104;11.396;2022-09-12T09:41:23;95798.19;;;20.45;100.00
48563;BME280;34981;49.104;11.396;2022-09-12T09:43:53;95790.41;;;20.14;100.00
48563;BME280;34981;49.104;11.396;2022-09-12T09:46:22;95791.66;;;20.17;99.72
48563;BME280;34981;49.104;11.396;2022-09-12T09:48:49;95791.81;;;20.20;99.18
48563;BME280;34981;49.104;11.396;2022-09-12T09:51:19;95787.09;;;20.09;98.85
48563;BME280;34981;49.104;11.396;2022-09-12T09:53:51;95790.22;;;20.19;99.47
48563;BME280;34981;49.104;11.396;2022-09-12T09:58:49;95782.81;;;20.20;94.07
48563;BME280;34981;49.104;11.396;2022-09-12T10:01:16;95782.25;;;20.47;95.38
48563;BME280;34981;49.104;11.396;2022-09-12T10:03:50;95787.22;;;20.66;97.21
48563;BME280;34981;49.104;11.396;2022-09-12T10:06:24;95777.44;;;20.65;96.28
48563;BME280;34981;49.104;11.396;2022-09-12T10:09:02;95777.91;;;20.79;95.69
48563;BME280;34981;49.104;11.396;2022-09-12T10:11:29;95773.84;;;21.10;97.89
48563;BME280;34981;49.104;11.396;2022-09-12T10:13:58;95775.00;;;21.09;96.08
48563;BME280;34981;49.104;11.396;2022-09-12T10:16:28;95765.28;;;20.99;94.13
48563;BME280;34981;49.104;11.396;2022-09-12T10:18:57;95769.84;;;20.95;93.35
48563;BME280;34981;49.104;11.396;2022-09-12T10:24:01;95771.09;;;20.97;92.20
48563;BME280;34981;49.104;11.396;2022-09-12T10:26:32;95764.81;;;20.73;90.13
48563;BME280;34981;49.104;11.396;2022-09-12T10:29:11;95767.78;;;20.80;90.43
48563;BME280;34981;49.104;11.396;2022-09-12T10:31:52;95757.22;;;21.03;92.07
48563;BME280;34981;49.104;11.396;2022-09-12T10:34:21;95756.34;;;21.23;89.51
48563;BME280;34981;49.104;11.396;2022-09-12T10:36:51;95759.97;;;21.15;88.15
48563;BME280;34981;49.104;11.396;2022-09-12T10:39:20;95758.72;;;21.36;90.25
48563;BME280;34981;49.104;11.396;2022-09-12T10:41:48;95753.84;;;21.30;87.01
48563;BME280;34981;49.104;11.396;2022-09-12T10:44:16;95749.47;;;20.92;86.03
48563;BME280;34981;49.104;11.396;2022-09-12T10:46:44;95753.91;;;20.97;85.78
48563;BME280;34981;49.104;11.396;2022-09-12T10:49:27;95751.72;;;20.90;85.78
48563;BME280;34981;49.104;11.396;2022-09-12T10:51:56;95743.88;;;21.13;86.00
48563;BME280;34981;49.104;11.396;2022-09-12T10:54:26;95746.63;;;21.01;84.19
48563;BME280;34981;49.104;11.396;2022-09-12T11:02:00;95743.00;;;21.33;82.99
48563;BME280;34981;49.104;11.396;2022-09-12T11:05:25;95744.16;;;21.32;82.73
48563;BME280;34981;49.104;11.396;2022-09-12T11:12:59;95739.56;;;21.49;81.30
48563;BME280;34981;49.104;11.396;2022-09-12T11:17:59;95729.88;;;21.51;79.93
48563;BME280;34981;49.104;11.396;2022-09-12T11:30:49;95724.22;;;21.32;77.63
48563;BME280;34981;49.104;11.396;2022-09-12T11:35:51;95724.44;;;21.39;78.02
48563;BME280;34981;49.104;11.396;2022-09-12T11:46:20;95724.81;;;21.25;76.86
48563;BME280;34981;49.104;11.396;2022-09-12T11:51:20;95726.00;;;20.91;73.92
48563;BME280;34981;49.104;11.396;2022-09-12T11:53:57;95722.25;;;21.08;74.41
48563;BME280;34981;49.104;11.396;2022-09-12T11:56:25;95713.38;;;21.35;75.06
48563;BME280;34981;49.104;11.396;2022-09-12T11:58:54;95717.59;;;21.45;72.32
48563;BME280;34981;49.104;11.396;2022-09-12T12:01:26;95721.59;;;21.48;74.20
48563;BME280;34981;49.104;11.396;2022-09-12T12:03:54;95713.94;;;21.41;74.49
48563;BME280;34981;49.104;11.396;2022-09-12T12:08:53;95715.69;;;21.73;74.68
48563;BME280;34981;49.104;11.396;2022-09-12T12:11:28;95711.56;;;21.80;74.52
48563;BME280;34981;49.104;11.396;2022-09-12T12:13:58;95708.03;;;21.15;73.36
48563;BME280;34981;49.104;11.396;2022-09-12T12:16:33;95708.41;;;21.25;74.16
48563;BME280;34981;49.104;11.396;2022-09-12T12:19:02;95712.59;;;21.11;73.24
48563;BME280;34981;49.104;11.396;2022-09-12T12:21:39;95702.78;;;20.97;72.88
48563;BME280;34981;49.104;11.396;2022-09-12T12:29:10;95700.72;;;21.43;72.15
48563;BME280;34981;49.104;11.396;2022-09-12T12:36:53;95688.84;;;21.51;72.44
48563;BME280;34981;49.104;11.396;2022-09-12T12:42:00;95684.69;;;21.29;71.92
48563;BME280;34981;49.104;11.396;2022-09-12T12:47:14;95683.00;;;20.88;69.56
48563;BME280;34981;49.104;11.396;2022-09-12T12:49:48;95671.13;;;20.84;71.00
48563;BME280;34981;49.104;11.396;2022-09-12T12:52:15;95666.47;;;21.09;71.74
48563;BME280;34981;49.104;11.396;2022-09-12T13:02:34;95666.34;;;20.93;69.75
48563;BME280;34981;49.104;11.396;2022-09-12T13:05:03;95659.97;;;21.02;70.83
48563;BME280;34981;49.104;11.396;2022-09-12T13:07:33;95656.78;;;20.99;70.69
48563;BME280;34981;49.104;11.396;2022-09-12T13:10:02;95657.34;;;20.93;70.23
48563;BME280;34981;49.104;11.396;2022-09-12T13:12:37;95651.09;;;20.68;69.49
48563;BME280;34981;49.104;11.396;2022-09-12T13:17:58;95641.31;;;20.79;70.51
48563;BME280;34981;49.104;11.396;2022-09-12T13:20:31;95637.53;;;20.84;70.80
48563;BME280;34981;49.104;11.396;2022-09-12T13:22:59;95638.59;;;20.67;70.36
48563;BME280;34981;49.104;11.396;2022-09-12T13:25:33;95628.69;;;20.75;71.00
48563;BME280;34981;49.104;11.396;2022-09-12T13:30:27;95620.59;;;20.78;69.48
48563;BME280;34981;49.104;11.396;2022-09-12T13:32:57;95624.69;;;20.84;70.84
48563;BME280;34981;49.104;11.396;2022-09-12T13:40:29;95631.06;;;20.76;71.94
48563;BME280;34981;49.104;11.396;2022-09-12T13:43:05;95632.56;;;20.74;72.34
48563;BME280;34981;49.104;11.396;2022-09-12T13:45:35;95631.97;;;20.68;72.21
48563;BME280;34981;49.104;11.396;2022-09-12T13:48:03;95628.22;;;20.60;72.78
48563;BME280;34981;49.104;11.396;2022-09-12T13:50:36;95623.53;;;20.61;72.97
48563;BME280;34981;49.104;11.396;2022-09-12T13:53:06;95622.88;;;20.64;72.89
48563;BME280;34981;49.104;11.396;2022-09-12T13:55:38;95631.84;;;20.77;74.42
48563;BME280;34981;49.104;11.396;2022-09-12T13:58:14;95628.78;;;20.78;74.28
48563;BME280;34981;49.104;11.396;2022-09-12T14:00:42;95626.53;;;20.80;74.01
48563;BME280;34981;49.104;11.396;2022-09-12T14:03:13;95630.75;;;20.66;74.10
48563;BME280;34981;49.104;11.396;2022-09-12T14:06:08;95624.47;;;20.65;74.65
48563;BME280;34981;49.104;11.396;2022-09-12T14:08:37;95620.00;;;20.60;73.88
48563;BME280;34981;49.104;11.396;2022-09-12T14:11:07;95620.25;;;20.55;73.84
48563;BME280;34981;49.104;11.396;2022-09-12T14:13:34;95625.28;;;20.66;75.29
48563;BME280;34981;49.104;11.396;2022-09-12T14:16:01;95615.34;;;20.61;75.30
48563;BME280;34981;49.104;11.396;2022-09-12T14:18:29;95618.44;;;20.72;75.06
48563;BME280;34981;49.104;11.396;2022-09-12T14:21:08;95615.94;;;20.67;74.58
48563;BME280;34981;49.104;11.396;2022-09-12T14:23:38;95613.91;;;20.51;74.39
48563;BME280;34981;49.104;11.396;2022-09-12T14:26:08;95607.06;;;20.45;74.64
48563;BME280;34981;49.104;11.396;2022-09-12T14:28:43;95605.56;;;20.48;75.51
48563;BME280;34981;49.104;11.396;2022-09-12T14:33:45;95609.50;;;20.26;74.04
48563;BME280;34981;49.104;11.396;2022-09-12T14:38:41;95606.03;;;20.38;74.49
48563;BME280;34981;49.104;11.396;2022-09-12T14:41:10;95601.47;;;20.42;74.97
48563;BME280;34981;49.104;11.396;2022-09-12T14:43:40;95592.81;;;20.40;75.22
48563;BME280;34981;49.104;11.396;2022-09-12T14:48:44;95593.69;;;20.32;74.68
48563;BME280;34981;49.104;11.396;2022-09-12T14:51:20;95599.72;;;20.25;74.13
48563;BME280;34981;49.104;11.396;2022-09-12T14:53:48;95598.84;;;20.33;74.63
48563;BME280;34981;49.104;11.396;2022-09-12T14:56:15;95591.19;;;20.27;74.11
48563;BME280;34981;49.104;11.396;2022-09-12T14:58:42;95588.50;;;20.39;74.72
48563;BME280;34981;49.104;11.396;2022-09-12T15:03:47;95590.28;;;20.23;74.94
48563;BME280;34981;49.104;11.396;2022-09-12T15:06:21;95590.97;;;20.19;75.04
48563;BME280;34981;49.104;11.396;2022-09-12T15:08:49;95599.72;;;20.25;75.08
48563;BME280;34981;49.104;11.396;2022-09-12T15:11:18;95588.47;;;20.27;74.77
48563;BME280;34981;49.104;11.396;2022-09-12T15:13:45;95582.78;;;20.19;74.73
48563;BME280;34981;49.104;11.396;2022-09-12T15:16:12;95577.31;;;20.07;74.18
48563;BME280;34981;49.104;11.396;2022-09-12T15:18:39;95578.69;;;20.13;74.54
48563;BME280;34981;49.104;11.396;2022-09-12T15:21:09;95581.41;;;20.13;75.21
48563;BME280;34981;49.104;11.396;2022-09-12T15:23:47;95581.41;;;20.13;75.56
48563;BME280;34981;49.104;11.396;2022-09-12T15:26:15;95574.59;;;20.19;75.44
48563;BME280;34981;49.104;11.396;2022-09-12T15:28:43;95574.13;;;20.05;75.03
48563;BME280;34981;49.104;11.396;2022-09-12T15:31:12;95577.31;;;20.07;74.91
48563;BME280;34981;49.104;11.396;2022-09-12T15:33:41;95562.72;;;19.91;75.47
48563;BME280;34981;49.104;11.396;2022-09-12T15:36:15;95568.59;;;19.81;76.69
48563;BME280;34981;49.104;11.396;2022-09-12T15:38:44;95567.22;;;19.75;76.41
48563;BME280;34981;49.104;11.396;2022-09-12T15:41:30;95565.69;;;19.86;76.96
48563;BME280;34981;49.104;11.396;2022-09-12T15:43:57;95571.00;;;19.82;77.04
48563;BME280;34981;49.104;11.396;2022-09-12T15:46:24;95567.25;;;19.87;77.68
48563;BME280;34981;49.104;11.396;2022-09-12T15:48:52;95567.72;;;19.89;78.62
48563;BME280;34981;49.104;11.396;2022-09-12T15:51:19;95568.97;;;19.92;79.07
48563;BME280;34981;49.104;11.396;2022-09-12T15:53:48;95570.69;;;19.96;78.55
48563;BME280;34981;49.104;11.396;2022-09-12T15:56:16;95569.28;;;19.78;79.21
48563;BME280;34981;49.104;11.396;2022-09-12T15:58:43;95566.31;;;19.71;78.84